sensor_id;sensor_type;location;lat;lon;timestamp;P1;durP1;ratioP1;P2;durP2;ratioP2
24761;SDS011;12865;51.934;10.330;2024-01-30T00:01:07;8.68;;;6.43;;
24761;SDS011;12865;51.934;10.330;2024-01-30T00:03:53;9.52;;;6.15;;
24761;SDS011;12865;51.934;10.330;2024-01-30T00:06:39;9.85;;;6.70;;
24761;SDS011;12865;51.934;10.330;2024-01-30T00:09:24;9.07;;;6.93;;
24761;SDS011;12865;51.934;10.330;2024-01-30T00:12:10;7.95;;;6.03;;
24761;SDS011;12865;51.934;10.330;2024-01-30T00:14:56;8.15;;;6.57;;
24761;SDS011;12865;51.934;10.330;2024-01-30T00:17:41;7.10;;;6.40;;
24761;SDS011;12865;51.934;10.330;2024-01-30T00:20:27;10.88;;;7.20;;
24761;SDS011;12865;51.934;10.330;2024-01-30T00:23:13;8.02;;;6.78;;
24761;SDS011;12865;51.934;10.330;2024-01-30T00:25:58;7.72;;;5.82;;
24761;SDS011;12865;51.934;10.330;2024-01-30T00:28:44;8.50;;;6.55;;
24761;SDS011;12865;51.934;10.330;2024-01-30T00:31:30;8.25;;;6.43;;
24761;SDS011;12865;51.934;10.330;2024-01-30T00:34:15;10.35;;;6.38;;
24761;SDS011;12865;51.934;10.330;2024-01-30T00:37:01;8.05;;;6.45;;
24761;SDS011;12865;51.934;10.330;2024-01-30T00:39:47;11.20;;;7.70;;
24761;SDS011;12865;51.934;10.330;2024-01-30T00:42:32;11.63;;;7.15;;
24761;SDS011;12865;51.934;10.330;2024-01-30T00:45:18;9.82;;;7.43;;
24761;SDS011;12865;51.934;10.330;2024-01-30T00:48:04;11.50;;;7.65;;
24761;SDS011;12865;51.934;10.330;2024-01-30T00:50:50;12.90;;;8.07;;
24761;SDS011;12865;51.934;10.330;2024-01-30T00:53:35;10.38;;;7.45;;
24761;SDS011;12865;51.934;10.330;2024-01-30T00:56:21;9.05;;;6.78;;
24761;SDS011;12865;51.934;10.330;2024-01-30T00:59:07;8.38;;;7.43;;
24761;SDS011;12865;51.934;10.330;2024-01-30T01:01:52;9.32;;;7.20;;
24761;SDS011;12865;51.934;10.330;2024-01-30T01:04:38;6.93;;;6.15;;
24761;SDS011;12865;51.934;10.330;2024-01-30T01:07:24;9.15;;;7.05;;
24761;SDS011;12865;51.934;10.330;2024-01-30T01:10:09;8.13;;;6.70;;
24761;SDS011;12865;51.934;10.330;2024-01-30T01:12:56;10.05;;;7.20;;
24761;SDS011;12865;51.934;10.330;2024-01-30T01:15:42;10.18;;;7.05;;
24761;SDS011;12865;51.934;10.330;2024-01-30T01:18:28;7.53;;;6.72;;
24761;SDS011;12865;51.934;10.330;2024-01-30T01:21:13;11.70;;;7.35;;
24761;SDS011;12865;51.934;10.330;2024-01-30T01:23:59;8.93;;;6.88;;
24761;SDS011;12865;51.934;10.330;2024-01-30T01:26:45;12.90;;;7.20;;
24761;SDS011;12865;51.934;10.330;2024-01-30T01:29:31;13.30;;;6.50;;
24761;SDS011;12865;51.934;10.330;2024-01-30T01:32:16;9.38;;;6.97;;
24761;SDS011;12865;51.934;10.330;2024-01-30T01:35:02;11.48;;;6.82;;
24761;SDS011;12865;51.934;10.330;2024-01-30T01:37:51;9.13;;;6.78;;
24761;SDS011;12865;51.934;10.330;2024-01-30T01:40:44;7.10;;;6.40;;
24761;SDS011;12865;51.934;10.330;2024-01-30T01:43:31;10.30;;;6.32;;
24761;SDS011;12865;51.934;10.330;2024-01-30T01:46:17;9.60;;;7.05;;
24761;SDS011;12865;51.934;10.330;2024-01-30T01:49:04;9.20;;;6.80;;
24761;SDS011;12865;51.934;10.330;2024-01-30T01:51:51;9.90;;;7.00;;
24761;SDS011;12865;51.934;10.330;2024-01-30T01:54:39;10.73;;;7.07;;
24761;SDS011;12865;51.934;10.330;2024-01-30T01:57:26;10.20;;;6.88;;
24761;SDS011;12865;51.934;10.330;2024-01-30T02:00:12;7.30;;;6.43;;
24761;SDS011;12865;51.934;10.330;2024-01-30T02:02:58;8.30;;;6.88;;
24761;SDS011;12865;51.934;10.330;2024-01-30T02:05:45;7.88;;;6.65;;
24761;SDS011;12865;51.934;10.330;2024-01-30T02:08:31;11.10;;;7.30;;
24761;SDS011;12865;51.934;10.330;2024-01-30T02:11:19;9.02;;;6.72;;
24761;SDS011;12865;51.934;10.330;2024-01-30T02:14:06;7.32;;;6.38;;
24761;SDS011;12865;51.934;10.330;2024-01-30T02:16:51;8.27;;;6.30;;
24761;SDS011;12865;51.934;10.330;2024-01-30T02:19:37;8.25;;;6.60;;
24761;SDS011;12865;51.934;10.330;2024-01-30T02:22:23;9.00;;;7.00;;
24761;SDS011;12865;51.934;10.330;2024-01-30T02:25:09;7.60;;;6.57;;
24761;SDS011;12865;51.934;10.330;2024-01-30T02:27:54;8.63;;;6.53;;
24761;SDS011;12865;51.934;10.330;2024-01-30T02:30:40;7.68;;;6.75;;
24761;SDS011;12865;51.934;10.330;2024-01-30T02:33:28;8.25;;;7.32;;
24761;SDS011;12865;51.934;10.330;2024-01-30T02:36:14;9.60;;;6.75;;
24761;SDS011;12865;51.934;10.330;2024-01-30T02:39:00;10.60;;;6.55;;
24761;SDS011;12865;51.934;10.330;2024-01-30T02:41:46;8.60;;;6.63;;
24761;SDS011;12865;51.934;10.330;2024-01-30T02:44:32;7.43;;;6.15;;
24761;SDS011;12865;51.934;10.330;2024-01-30T02:47:17;9.82;;;6.90;;
24761;SDS011;12865;51.934;10.330;2024-01-30T02:50:03;10.55;;;7.30;;
24761;SDS011;12865;51.934;10.330;2024-01-30T02:52:49;9.75;;;7.10;;
24761;SDS011;12865;51.934;10.330;2024-01-30T02:55:35;8.43;;;6.43;;
24761;SDS011;12865;51.934;10.330;2024-01-30T02:58:20;8.95;;;6.70;;
24761;SDS011;12865;51.934;10.330;2024-01-30T03:01:06;10.40;;;6.80;;
24761;SDS011;12865;51.934;10.330;2024-01-30T03:03:52;9.30;;;7.20;;
24761;SDS011;12865;51.934;10.330;2024-01-30T03:06:38;8.15;;;6.40;;
24761;SDS011;12865;51.934;10.330;2024-01-30T03:09:23;9.23;;;6.60;;
24761;SDS011;12865;51.934;10.330;2024-01-30T03:12:09;10.35;;;6.70;;
24761;SDS011;12865;51.934;10.330;2024-01-30T03:14:55;9.82;;;6.75;;
24761;SDS011;12865;51.934;10.330;2024-01-30T03:17:40;8.27;;;6.85;;
24761;SDS011;12865;51.934;10.330;2024-01-30T03:20:26;9.90;;;6.85;;
24761;SDS011;12865;51.934;10.330;2024-01-30T03:23:12;12.70;;;7.75;;
24761;SDS011;12865;51.934;10.330;2024-01-30T03:25:57;7.95;;;6.97;;
24761;SDS011;12865;51.934;10.330;2024-01-30T03:28:43;8.63;;;7.10;;
24761;SDS011;12865;51.934;10.330;2024-01-30T03:31:29;9.35;;;7.00;;
24761;SDS011;12865;51.934;10.330;2024-01-30T03:34:15;9.25;;;6.93;;
24761;SDS011;12865;51.934;10.330;2024-01-30T03:37:00;9.77;;;7.20;;
24761;SDS011;12865;51.934;10.330;2024-01-30T03:39:46;9.50;;;6.95;;
24761;SDS011;12865;51.934;10.330;2024-01-30T03:42:32;9.65;;;6.20;;
24761;SDS011;12865;51.934;10.330;2024-01-30T03:45:17;9.25;;;7.43;;
24761;SDS011;12865;51.934;10.330;2024-01-30T03:48:05;10.80;;;6.95;;
24761;SDS011;12865;51.934;10.330;2024-01-30T03:50:51;10.48;;;6.68;;
24761;SDS011;12865;51.934;10.330;2024-01-30T03:53:36;10.25;;;6.97;;
24761;SDS011;12865;51.934;10.330;2024-01-30T03:56:22;7.88;;;6.07;;
24761;SDS011;12865;51.934;10.330;2024-01-30T03:59:08;10.73;;;6.85;;
24761;SDS011;12865;51.934;10.330;2024-01-30T04:01:54;12.25;;;6.75;;
24761;SDS011;12865;51.934;10.330;2024-01-30T04:04:39;8.68;;;6.15;;
24761;SDS011;12865;51.934;10.330;2024-01-30T04:07:25;7.22;;;6.43;;
24761;SDS011;12865;51.934;10.330;2024-01-30T04:10:11;10.85;;;6.65;;
24761;SDS011;12865;51.934;10.330;2024-01-30T04:12:56;9.23;;;6.80;;
24761;SDS011;12865;51.934;10.330;2024-01-30T04:15:42;8.23;;;6.35;;
24761;SDS011;12865;51.934;10.330;2024-01-30T04:18:28;11.93;;;6.93;;
24761;SDS011;12865;51.934;10.330;2024-01-30T04:21:14;8.35;;;6.30;;
24761;SDS011;12865;51.934;10.330;2024-01-30T04:24:00;11.70;;;6.60;;
24761;SDS011;12865;51.934;10.330;2024-01-30T04:26:46;10.88;;;6.75;;
24761;SDS011;12865;51.934;10.330;2024-01-30T04:29:31;12.55;;;6.95;;
24761;SDS011;12865;51.934;10.330;2024-01-30T04:32:18;8.98;;;6.78;;
24761;SDS011;12865;51.934;10.330;2024-01-30T04:35:03;9.63;;;6.63;;
24761;SDS011;12865;51.934;10.330;2024-01-30T04:37:49;9.10;;;6.13;;
24761;SDS011;12865;51.934;10.330;2024-01-30T04:40:35;10.10;;;6.57;;
24761;SDS011;12865;51.934;10.330;2024-01-30T04:43:20;9.57;;;6.18;;
24761;SDS011;12865;51.934;10.330;2024-01-30T04:46:06;8.27;;;6.45;;
24761;SDS011;12865;51.934;10.330;2024-01-30T04:48:52;8.32;;;5.93;;
24761;SDS011;12865;51.934;10.330;2024-01-30T04:51:38;8.73;;;5.90;;
24761;SDS011;12865;51.934;10.330;2024-01-30T04:54:23;13.27;;;6.25;;
24761;SDS011;12865;51.934;10.330;2024-01-30T04:57:09;8.13;;;6.38;;
24761;SDS011;12865;51.934;10.330;2024-01-30T04:59:57;10.85;;;6.43;;
24761;SDS011;12865;51.934;10.330;2024-01-30T05:02:43;9.65;;;6.03;;
24761;SDS011;12865;51.934;10.330;2024-01-30T05:05:28;9.13;;;6.22;;
24761;SDS011;12865;51.934;10.330;2024-01-30T05:08:14;10.00;;;6.50;;
24761;SDS011;12865;51.934;10.330;2024-01-30T05:11:00;11.10;;;6.75;;
24761;SDS011;12865;51.934;10.330;2024-01-30T05:13:47;7.65;;;5.57;;
24761;SDS011;12865;51.934;10.330;2024-01-30T05:16:32;7.88;;;6.50;;
24761;SDS011;12865;51.934;10.330;2024-01-30T05:19:18;9.57;;;6.25;;
24761;SDS011;12865;51.934;10.330;2024-01-30T05:22:04;8.85;;;5.88;;
24761;SDS011;12865;51.934;10.330;2024-01-30T05:24:50;10.82;;;6.07;;
24761;SDS011;12865;51.934;10.330;2024-01-30T05:27:35;8.10;;;6.13;;
24761;SDS011;12865;51.934;10.330;2024-01-30T05:30:21;8.57;;;6.20;;
24761;SDS011;12865;51.934;10.330;2024-01-30T05:33:07;8.93;;;6.15;;
24761;SDS011;12865;51.934;10.330;2024-01-30T05:35:52;6.97;;;5.72;;
24761;SDS011;12865;51.934;10.330;2024-01-30T05:38:39;10.38;;;5.95;;
24761;SDS011;12865;51.934;10.330;2024-01-30T05:41:25;8.10;;;5.85;;
24761;SDS011;12865;51.934;10.330;2024-01-30T05:44:11;7.65;;;5.93;;
24761;SDS011;12865;51.934;10.330;2024-01-30T05:46:56;7.50;;;5.70;;
24761;SDS011;12865;51.934;10.330;2024-01-30T05:49:42;9.57;;;6.03;;
24761;SDS011;12865;51.934;10.330;2024-01-30T05:52:28;6.95;;;5.40;;
24761;SDS011;12865;51.934;10.330;2024-01-30T05:55:14;9.85;;;6.00;;
24761;SDS011;12865;51.934;10.330;2024-01-30T05:57:59;8.52;;;5.60;;
24761;SDS011;12865;51.934;10.330;2024-01-30T06:00:45;10.20;;;6.25;;
24761;SDS011;12865;51.934;10.330;2024-01-30T06:03:31;10.40;;;6.40;;
24761;SDS011;12865;51.934;10.330;2024-01-30T06:06:16;9.77;;;6.13;;
24761;SDS011;12865;51.934;10.330;2024-01-30T06:09:02;9.32;;;6.47;;
24761;SDS011;12865;51.934;10.330;2024-01-30T06:11:48;10.13;;;6.10;;
24761;SDS011;12865;51.934;10.330;2024-01-30T06:14:33;9.52;;;6.63;;
24761;SDS011;12865;51.934;10.330;2024-01-30T06:17:19;10.57;;;6.35;;
24761;SDS011;12865;51.934;10.330;2024-01-30T06:20:05;11.93;;;6.40;;
24761;SDS011;12865;51.934;10.330;2024-01-30T06:22:51;9.88;;;6.63;;
24761;SDS011;12865;51.934;10.330;2024-01-30T06:25:37;9.90;;;6.80;;
24761;SDS011;12865;51.934;10.330;2024-01-30T06:28:22;7.15;;;6.05;;
24761;SDS011;12865;51.934;10.330;2024-01-30T06:31:08;9.65;;;6.20;;
24761;SDS011;12865;51.934;10.330;2024-01-30T06:33:54;9.43;;;6.38;;
24761;SDS011;12865;51.934;10.330;2024-01-30T06:36:39;8.50;;;5.97;;
24761;SDS011;12865;51.934;10.330;2024-01-30T06:39:26;7.93;;;6.68;;
24761;SDS011;12865;51.934;10.330;2024-01-30T06:42:11;8.73;;;6.72;;
24761;SDS011;12865;51.934;10.330;2024-01-30T06:44:57;8.00;;;6.40;;
24761;SDS011;12865;51.934;10.330;2024-01-30T06:47:43;13.77;;;6.47;;
24761;SDS011;12865;51.934;10.330;2024-01-30T06:50:29;9.57;;;6.53;;
24761;SDS011;12865;51.934;10.330;2024-01-30T06:53:14;9.50;;;6.05;;
24761;SDS011;12865;51.934;10.330;2024-01-30T06:56:00;10.73;;;6.35;;
24761;SDS011;12865;51.934;10.330;2024-01-30T06:58:47;11.15;;;6.10;;
24761;SDS011;12865;51.934;10.330;2024-01-30T07:01:33;9.07;;;6.80;;
24761;SDS011;12865;51.934;10.330;2024-01-30T07:04:19;13.32;;;6.40;;
24761;SDS011;12865;51.934;10.330;2024-01-30T07:07:04;8.75;;;5.47;;
24761;SDS011;12865;51.934;10.330;2024-01-30T07:09:51;7.55;;;5.50;;
24761;SDS011;12865;51.934;10.330;2024-01-30T07:12:41;7.68;;;5.63;;
24761;SDS011;12865;51.934;10.330;2024-01-30T07:15:27;10.13;;;5.43;;
24761;SDS011;12865;51.934;10.330;2024-01-30T07:18:13;10.27;;;6.03;;
24761;SDS011;12865;51.934;10.330;2024-01-30T07:20:59;10.50;;;5.68;;
24761;SDS011;12865;51.934;10.330;2024-01-30T07:23:44;7.38;;;5.60;;
24761;SDS011;12865;51.934;10.330;2024-01-30T07:26:30;7.85;;;5.68;;
24761;SDS011;12865;51.934;10.330;2024-01-30T07:29:16;8.93;;;5.78;;
24761;SDS011;12865;51.934;10.330;2024-01-30T07:32:01;7.85;;;6.28;;
24761;SDS011;12865;51.934;10.330;2024-01-30T07:34:47;11.30;;;6.15;;
24761;SDS011;12865;51.934;10.330;2024-01-30T07:37:33;10.50;;;5.82;;
24761;SDS011;12865;51.934;10.330;2024-01-30T07:40:19;7.22;;;5.88;;
24761;SDS011;12865;51.934;10.330;2024-01-30T07:43:04;8.20;;;6.18;;
24761;SDS011;12865;51.934;10.330;2024-01-30T07:45:50;8.20;;;5.43;;
24761;SDS011;12865;51.934;10.330;2024-01-30T07:48:36;9.30;;;6.13;;
24761;SDS011;12865;51.934;10.330;2024-01-30T07:51:21;8.73;;;6.53;;
24761;SDS011;12865;51.934;10.330;2024-01-30T07:54:07;8.20;;;6.07;;
24761;SDS011;12865;51.934;10.330;2024-01-30T07:56:53;9.10;;;5.70;;
24761;SDS011;12865;51.934;10.330;2024-01-30T07:59:38;9.07;;;5.75;;
24761;SDS011;12865;51.934;10.330;2024-01-30T08:02:24;8.95;;;5.80;;
24761;SDS011;12865;51.934;10.330;2024-01-30T08:05:10;8.70;;;6.05;;
24761;SDS011;12865;51.934;10.330;2024-01-30T08:07:56;9.23;;;5.85;;
24761;SDS011;12865;51.934;10.330;2024-01-30T08:10:42;9.48;;;5.85;;
24761;SDS011;12865;51.934;10.330;2024-01-30T08:13:28;10.30;;;6.43;;
24761;SDS011;12865;51.934;10.330;2024-01-30T08:16:13;9.45;;;6.72;;
24761;SDS011;12865;51.934;10.330;2024-01-30T08:18:59;7.93;;;6.43;;
24761;SDS011;12865;51.934;10.330;2024-01-30T08:21:46;9.40;;;6.10;;
24761;SDS011;12865;51.934;10.330;2024-01-30T08:24:31;7.80;;;6.43;;
24761;SDS011;12865;51.934;10.330;2024-01-30T08:27:17;7.40;;;6.10;;
24761;SDS011;12865;51.934;10.330;2024-01-30T08:30:03;7.55;;;5.82;;
24761;SDS011;12865;51.934;10.330;2024-01-30T08:32:49;10.57;;;6.35;;
24761;SDS011;12865;51.934;10.330;2024-01-30T08:35:35;9.15;;;6.28;;
24761;SDS011;12865;51.934;10.330;2024-01-30T08:38:21;8.73;;;6.60;;
24761;SDS011;12865;51.934;10.330;2024-01-30T08:41:07;7.95;;;5.80;;
24761;SDS011;12865;51.934;10.330;2024-01-30T08:43:53;11.38;;;6.03;;
24761;SDS011;12865;51.934;10.330;2024-01-30T08:46:39;9.48;;;6.30;;
24761;SDS011;12865;51.934;10.330;2024-01-30T08:49:25;9.20;;;6.00;;
24761;SDS011;12865;51.934;10.330;2024-01-30T08:52:11;8.75;;;6.28;;
24761;SDS011;12865;51.934;10.330;2024-01-30T08:54:56;8.50;;;5.90;;
24761;SDS011;12865;51.934;10.330;2024-01-30T08:57:42;6.45;;;5.68;;
24761;SDS011;12865;51.934;10.330;2024-01-30T09:00:28;6.47;;;5.63;;
24761;SDS011;12865;51.934;10.330;2024-01-30T09:03:14;7.30;;;5.85;;
24761;SDS011;12865;51.934;10.330;2024-01-30T09:06:00;8.13;;;5.90;;
24761;SDS011;12865;51.934;10.330;2024-01-30T09:08:45;8.00;;;5.68;;
24761;SDS011;12865;51.934;10.330;2024-01-30T09:11:31;9.70;;;6.03;;
24761;SDS011;12865;51.934;10.330;2024-01-30T09:14:17;7.47;;;5.65;;
24761;SDS011;12865;51.934;10.330;2024-01-30T09:17:02;7.65;;;5.70;;
24761;SDS011;12865;51.934;10.330;2024-01-30T09:19:49;7.68;;;5.22;;
24761;SDS011;12865;51.934;10.330;2024-01-30T09:22:34;9.02;;;5.85;;
24761;SDS011;12865;51.934;10.330;2024-01-30T09:25:20;9.70;;;5.70;;
24761;SDS011;12865;51.934;10.330;2024-01-30T09:28:06;8.27;;;5.88;;
24761;SDS011;12865;51.934;10.330;2024-01-30T09:30:51;8.40;;;5.75;;
24761;SDS011;12865;51.934;10.330;2024-01-30T09:33:37;5.95;;;5.28;;
24761;SDS011;12865;51.934;10.330;2024-01-30T09:36:24;7.60;;;5.35;;
24761;SDS011;12865;51.934;10.330;2024-01-30T09:39:10;10.50;;;5.82;;
24761;SDS011;12865;51.934;10.330;2024-01-30T09:41:57;7.80;;;5.45;;
24761;SDS011;12865;51.934;10.330;2024-01-30T09:44:48;8.93;;;5.72;;
24761;SDS011;12865;51.934;10.330;2024-01-30T09:47:40;7.38;;;5.03;;
24761;SDS011;12865;51.934;10.330;2024-01-30T09:50:30;6.05;;;5.47;;
24761;SDS011;12865;51.934;10.330;2024-01-30T09:53:16;8.15;;;5.38;;
24761;SDS011;12865;51.934;10.330;2024-01-30T09:56:03;6.88;;;5.35;;
24761;SDS011;12865;51.934;10.330;2024-01-30T09:58:50;8.13;;;5.32;;
24761;SDS011;12865;51.934;10.330;2024-01-30T10:01:36;9.07;;;5.15;;
24761;SDS011;12865;51.934;10.330;2024-01-30T10:04:22;8.27;;;5.05;;
24761;SDS011;12865;51.934;10.330;2024-01-30T10:07:07;6.28;;;4.80;;
24761;SDS011;12865;51.934;10.330;2024-01-30T10:09:55;7.13;;;5.22;;
24761;SDS011;12865;51.934;10.330;2024-01-30T10:12:42;8.65;;;5.18;;
24761;SDS011;12865;51.934;10.330;2024-01-30T10:15:28;8.38;;;5.25;;
24761;SDS011;12865;51.934;10.330;2024-01-30T10:18:14;8.55;;;5.45;;
24761;SDS011;12865;51.934;10.330;2024-01-30T10:21:00;6.70;;;5.22;;
24761;SDS011;12865;51.934;10.330;2024-01-30T10:23:45;8.57;;;5.28;;
24761;SDS011;12865;51.934;10.330;2024-01-30T10:26:31;8.05;;;4.88;;
24761;SDS011;12865;51.934;10.330;2024-01-30T10:29:19;6.95;;;5.50;;
24761;SDS011;12865;51.934;10.330;2024-01-30T10:32:05;7.90;;;5.13;;
24761;SDS011;12865;51.934;10.330;2024-01-30T10:34:51;9.13;;;5.25;;
24761;SDS011;12865;51.934;10.330;2024-01-30T10:37:37;7.50;;;5.28;;
24761;SDS011;12865;51.934;10.330;2024-01-30T10:40:22;8.55;;;5.05;;
24761;SDS011;12865;51.934;10.330;2024-01-30T10:43:13;8.50;;;5.43;;
24761;SDS011;12865;51.934;10.330;2024-01-30T10:46:06;7.65;;;5.78;;
24761;SDS011;12865;51.934;10.330;2024-01-30T10:48:57;7.15;;;5.10;;
24761;SDS011;12865;51.934;10.330;2024-01-30T10:51:44;6.30;;;5.07;;
24761;SDS011;12865;51.934;10.330;2024-01-30T10:54:31;9.55;;;5.68;;
24761;SDS011;12865;51.934;10.330;2024-01-30T10:57:20;8.35;;;5.55;;
24761;SDS011;12865;51.934;10.330;2024-01-30T11:00:10;7.57;;;5.28;;
24761;SDS011;12865;51.934;10.330;2024-01-30T11:02:58;5.82;;;4.72;;
24761;SDS011;12865;51.934;10.330;2024-01-30T11:05:48;6.53;;;4.55;;
24761;SDS011;12865;51.934;10.330;2024-01-30T11:08:35;7.13;;;5.00;;
24761;SDS011;12865;51.934;10.330;2024-01-30T11:11:21;8.02;;;5.18;;
24761;SDS011;12865;51.934;10.330;2024-01-30T11:14:06;6.40;;;4.20;;
24761;SDS011;12865;51.934;10.330;2024-01-30T11:16:58;7.43;;;4.50;;
24761;SDS011;12865;51.934;10.330;2024-01-30T11:19:45;8.82;;;5.35;;
24761;SDS011;12865;51.934;10.330;2024-01-30T11:22:31;9.10;;;5.20;;
24761;SDS011;12865;51.934;10.330;2024-01-30T11:25:17;5.72;;;4.82;;
24761;SDS011;12865;51.934;10.330;2024-01-30T11:28:05;10.43;;;5.70;;
24761;SDS011;12865;51.934;10.330;2024-01-30T11:31:05;9.65;;;5.32;;
24761;SDS011;12865;51.934;10.330;2024-01-30T11:33:52;7.10;;;5.00;;
24761;SDS011;12865;51.934;10.330;2024-01-30T11:36:38;8.15;;;5.22;;
24761;SDS011;12865;51.934;10.330;2024-01-30T11:39:30;9.05;;;5.63;;
24761;SDS011;12865;51.934;10.330;2024-01-30T11:42:16;7.63;;;4.75;;
24761;SDS011;12865;51.934;10.330;2024-01-30T11:45:03;9.20;;;5.38;;
24761;SDS011;12865;51.934;10.330;2024-01-30T11:47:49;7.53;;;5.60;;
24761;SDS011;12865;51.934;10.330;2024-01-30T11:50:34;7.82;;;5.10;;
24761;SDS011;12865;51.934;10.330;2024-01-30T11:53:20;5.47;;;4.97;;
24761;SDS011;12865;51.934;10.330;2024-01-30T11:56:06;9.95;;;5.43;;
24761;SDS011;12865;51.934;10.330;2024-01-30T11:58:53;7.68;;;5.40;;
24761;SDS011;12865;51.934;10.330;2024-01-30T12:01:40;7.10;;;5.78;;
24761;SDS011;12865;51.934;10.330;2024-01-30T12:04:29;10.18;;;4.93;;
24761;SDS011;12865;51.934;10.330;2024-01-30T12:07:15;8.45;;;5.43;;
24761;SDS011;12865;51.934;10.330;2024-01-30T12:10:01;8.88;;;5.57;;
24761;SDS011;12865;51.934;10.330;2024-01-30T12:12:49;8.10;;;5.40;;
24761;SDS011;12865;51.934;10.330;2024-01-30T12:15:35;7.90;;;5.30;;
24761;SDS011;12865;51.934;10.330;2024-01-30T12:18:21;7.82;;;5.10;;
24761;SDS011;12865;51.934;10.330;2024-01-30T12:21:07;7.25;;;5.20;;
24761;SDS011;12865;51.934;10.330;2024-01-30T12:23:53;5.15;;;4.65;;
24761;SDS011;12865;51.934;10.330;2024-01-30T12:26:39;7.93;;;4.97;;
24761;SDS011;12865;51.934;10.330;2024-01-30T12:29:25;8.57;;;5.05;;
24761;SDS011;12865;51.934;10.330;2024-01-30T12:32:15;6.75;;;4.90;;
24761;SDS011;12865;51.934;10.330;2024-01-30T12:35:01;9.23;;;6.18;;
24761;SDS011;12865;51.934;10.330;2024-01-30T12:37:48;7.57;;;5.47;;
24761;SDS011;12865;51.934;10.330;2024-01-30T12:40:34;6.55;;;5.68;;
24761;SDS011;12865;51.934;10.330;2024-01-30T12:43:19;6.78;;;5.53;;
24761;SDS011;12865;51.934;10.330;2024-01-30T12:46:05;6.32;;;5.60;;
24761;SDS011;12865;51.934;10.330;2024-01-30T12:48:51;7.10;;;5.50;;
24761;SDS011;12865;51.934;10.330;2024-01-30T12:51:37;7.72;;;5.05;;
24761;SDS011;12865;51.934;10.330;2024-01-30T12:54:23;7.43;;;5.13;;
24761;SDS011;12865;51.934;10.330;2024-01-30T12:57:09;7.80;;;5.55;;
24761;SDS011;12865;51.934;10.330;2024-01-30T12:59:54;9.63;;;5.68;;
24761;SDS011;12865;51.934;10.330;2024-01-30T13:02:40;6.72;;;5.28;;
24761;SDS011;12865;51.934;10.330;2024-01-30T13:05:27;7.65;;;4.78;;
24761;SDS011;12865;51.934;10.330;2024-01-30T13:08:13;8.07;;;5.43;;
24761;SDS011;12865;51.934;10.330;2024-01-30T13:10:59;8.50;;;5.00;;
24761;SDS011;12865;51.934;10.330;2024-01-30T13:13:44;9.07;;;5.78;;
24761;SDS011;12865;51.934;10.330;2024-01-30T13:16:30;7.35;;;5.00;;
24761;SDS011;12865;51.934;10.330;2024-01-30T13:19:16;6.57;;;5.15;;
24761;SDS011;12865;51.934;10.330;2024-01-30T13:22:02;6.35;;;5.38;;
24761;SDS011;12865;51.934;10.330;2024-01-30T13:24:48;9.68;;;5.18;;
24761;SDS011;12865;51.934;10.330;2024-01-30T13:27:33;8.15;;;5.32;;
24761;SDS011;12865;51.934;10.330;2024-01-30T13:30:19;9.02;;;5.30;;
24761;SDS011;12865;51.934;10.330;2024-01-30T13:33:05;7.25;;;4.82;;
24761;SDS011;12865;51.934;10.330;2024-01-30T13:35:50;7.78;;;5.60;;
24761;SDS011;12865;51.934;10.330;2024-01-30T13:38:36;7.07;;;5.38;;
24761;SDS011;12865;51.934;10.330;2024-01-30T13:41:22;6.28;;;5.13;;
24761;SDS011;12865;51.934;10.330;2024-01-30T13:44:08;7.15;;;5.50;;
24761;SDS011;12865;51.934;10.330;2024-01-30T13:46:54;7.00;;;5.32;;
24761;SDS011;12865;51.934;10.330;2024-01-30T13:49:40;10.25;;;5.45;;
24761;SDS011;12865;51.934;10.330;2024-01-30T13:52:26;5.50;;;4.75;;
24761;SDS011;12865;51.934;10.330;2024-01-30T13:55:12;12.40;;;7.63;;
24761;SDS011;12865;51.934;10.330;2024-01-30T13:57:58;12.50;;;7.88;;
24761;SDS011;12865;51.934;10.330;2024-01-30T14:00:44;6.32;;;5.32;;
24761;SDS011;12865;51.934;10.330;2024-01-30T14:03:29;6.57;;;5.68;;
24761;SDS011;12865;51.934;10.330;2024-01-30T14:06:15;6.25;;;5.10;;
24761;SDS011;12865;51.934;10.330;2024-01-30T14:09:01;6.32;;;5.65;;
24761;SDS011;12865;51.934;10.330;2024-01-30T14:11:46;7.43;;;5.53;;
24761;SDS011;12865;51.934;10.330;2024-01-30T14:14:32;7.57;;;5.55;;
24761;SDS011;12865;51.934;10.330;2024-01-30T14:17:18;6.03;;;5.07;;
24761;SDS011;12865;51.934;10.330;2024-01-30T14:20:03;6.40;;;5.00;;
24761;SDS011;12865;51.934;10.330;2024-01-30T14:22:50;12.48;;;7.03;;
24761;SDS011;12865;51.934;10.330;2024-01-30T14:25:36;9.05;;;5.32;;
24761;SDS011;12865;51.934;10.330;2024-01-30T14:28:22;5.75;;;4.78;;
24761;SDS011;12865;51.934;10.330;2024-01-30T14:31:08;7.72;;;5.35;;
24761;SDS011;12865;51.934;10.330;2024-01-30T14:33:54;8.40;;;6.07;;
24761;SDS011;12865;51.934;10.330;2024-01-30T14:36:40;9.13;;;5.28;;
24761;SDS011;12865;51.934;10.330;2024-01-30T14:39:26;9.35;;;5.65;;
24761;SDS011;12865;51.934;10.330;2024-01-30T14:42:11;6.97;;;5.13;;
24761;SDS011;12865;51.934;10.330;2024-01-30T14:44:57;8.75;;;5.20;;
24761;SDS011;12865;51.934;10.330;2024-01-30T14:47:43;7.38;;;5.82;;
24761;SDS011;12865;51.934;10.330;2024-01-30T14:50:29;9.23;;;6.57;;
24761;SDS011;12865;51.934;10.330;2024-01-30T14:53:15;7.38;;;4.85;;
24761;SDS011;12865;51.934;10.330;2024-01-30T14:56:00;7.53;;;5.30;;
24761;SDS011;12865;51.934;10.330;2024-01-30T14:58:48;9.48;;;5.72;;
24761;SDS011;12865;51.934;10.330;2024-01-30T15:01:34;8.07;;;5.50;;
24761;SDS011;12865;51.934;10.330;2024-01-30T15:04:20;7.68;;;5.95;;
24761;SDS011;12865;51.934;10.330;2024-01-30T15:07:05;8.43;;;5.05;;
24761;SDS011;12865;51.934;10.330;2024-01-30T15:09:51;7.90;;;5.32;;
24761;SDS011;12865;51.934;10.330;2024-01-30T15:12:37;8.13;;;5.20;;
24761;SDS011;12865;51.934;10.330;2024-01-30T15:15:23;7.60;;;5.72;;
24761;SDS011;12865;51.934;10.330;2024-01-30T15:18:08;12.82;;;6.00;;
24761;SDS011;12865;51.934;10.330;2024-01-30T15:20:57;6.97;;;5.40;;
24761;SDS011;12865;51.934;10.330;2024-01-30T15:23:43;9.65;;;4.93;;
24761;SDS011;12865;51.934;10.330;2024-01-30T15:26:29;10.07;;;5.35;;
24761;SDS011;12865;51.934;10.330;2024-01-30T15:29:15;8.15;;;5.25;;
24761;SDS011;12865;51.934;10.330;2024-01-30T15:32:00;9.55;;;5.18;;
24761;SDS011;12865;51.934;10.330;2024-01-30T15:34:46;10.65;;;5.25;;
24761;SDS011;12865;51.934;10.330;2024-01-30T15:37:32;11.50;;;5.78;;
24761;SDS011;12865;51.934;10.330;2024-01-30T15:40:18;8.55;;;5.85;;
24761;SDS011;12865;51.934;10.330;2024-01-30T15:43:04;6.72;;;5.30;;
24761;SDS011;12865;51.934;10.330;2024-01-30T15:45:49;6.75;;;5.43;;
24761;SDS011;12865;51.934;10.330;2024-01-30T15:48:38;10.57;;;5.95;;
24761;SDS011;12865;51.934;10.330;2024-01-30T15:51:25;9.00;;;5.55;;
24761;SDS011;12865;51.934;10.330;2024-01-30T15:54:10;9.07;;;6.35;;
24761;SDS011;12865;51.934;10.330;2024-01-30T15:56:56;8.90;;;6.10;;
24761;SDS011;12865;51.934;10.330;2024-01-30T15:59:42;9.93;;;6.43;;
24761;SDS011;12865;51.934;10.330;2024-01-30T16:02:27;9.48;;;6.13;;
24761;SDS011;12865;51.934;10.330;2024-01-30T16:05:13;8.98;;;5.35;;
24761;SDS011;12865;51.934;10.330;2024-01-30T16:07:59;10.13;;;6.40;;
24761;SDS011;12865;51.934;10.330;2024-01-30T16:10:45;12.60;;;5.93;;
24761;SDS011;12865;51.934;10.330;2024-01-30T16:13:30;10.00;;;5.97;;
24761;SDS011;12865;51.934;10.330;2024-01-30T16:16:16;10.20;;;6.07;;
24761;SDS011;12865;51.934;10.330;2024-01-30T16:19:02;8.63;;;5.97;;
24761;SDS011;12865;51.934;10.330;2024-01-30T16:21:48;8.13;;;6.38;;